sensor_id;sensor_type;location;lat;lon;timestamp;temperature;humidity
3850;DHT22;1940;51.052;13.678;2023-06-22T00:10:53;21.90;84.40
3850;DHT22;1940;51.052;13.678;2023-06-22T00:26:50;21.50;85.20
3850;DHT22;1940;51.052;13.678;2023-06-22T00:38:59;21.40;85.50
3850;DHT22;1940;51.052;13.678;2023-06-22T00:41:24;21.40;85.50
3850;DHT22;1940;51.052;13.678;2023-06-22T00:47:17;21.40;85.60
3850;DHT22;1940;51.052;13.678;2023-06-22T00:53:00;21.30;85.80
3850;DHT22;1940;51.052;13.678;2023-06-22T00:55:26;21.20;86.00
3850;DHT22;1940;51.052;13.678;2023-06-22T01:04:37;21.20;86.20
3850;DHT22;1940;51.052;13.678;2023-06-22T01:37:03;20.70;87.30
3850;DHT22;1940;51.052;13.678;2023-06-22T01:39:30;20.70;87.50
3850;DHT22;1940;51.052;13.678;2023-06-22T01:41:57;20.70;87.40
3850;DHT22;1940;51.052;13.678;2023-06-22T02:01:30;20.60;87.80
3850;DHT22;1940;51.052;13.678;2023-06-22T02:04:21;20.50;88.10
3850;DHT22;1940;51.052;13.678;2023-06-22T02:10:12;20.40;88.40
3850;DHT22;1940;51.052;13.678;2023-06-22T02:22:22;20.40;88.50
3850;DHT22;1940;51.052;13.678;2023-06-22T02:28:09;20.40;88.60
3850;DHT22;1940;51.052;13.678;2023-06-22T02:30:35;20.30;88.70
3850;DHT22;1940;51.052;13.678;2023-06-22T02:33:00;20.20;88.60
3850;DHT22;1940;51.052;13.678;2023-06-22T02:35:28;20.30;88.70
3850;DHT22;1940;51.052;13.678;2023-06-22T02:37:57;20.30;88.70
3850;DHT22;1940;51.052;13.678;2023-06-22T02:40:23;20.30;88.60
3850;DHT22;1940;51.052;13.678;2023-06-22T02:42:48;20.30;88.60
3850;DHT22;1940;51.052;13.678;2023-06-22T02:45:14;20.30;88.40
3850;DHT22;1940;51.052;13.678;2023-06-22T02:47:39;20.20;88.40
3850;DHT22;1940;51.052;13.678;2023-06-22T02:50:05;20.20;88.50
3850;DHT22;1940;51.052;13.678;2023-06-22T02:52:31;20.10;88.80
3850;DHT22;1940;51.052;13.678;2023-06-22T02:54:56;20.10;88.70
3850;DHT22;1940;51.052;13.678;2023-06-22T02:57:22;19.90;89.20
3850;DHT22;1940;51.052;13.678;2023-06-22T02:59:47;19.90;89.50
3850;DHT22;1940;51.052;13.678;2023-06-22T03:02:13;19.90;89.50
3850;DHT22;1940;51.052;13.678;2023-06-22T03:04:38;20.00;89.30
3850;DHT22;1940;51.052;13.678;2023-06-22T03:07:04;20.00;89.20
3850;DHT22;1940;51.052;13.678;2023-06-22T03:09:30;19.90;89.30
3850;DHT22;1940;51.052;13.678;2023-06-22T03:11:55;19.90;89.50
3850;DHT22;1940;51.052;13.678;2023-06-22T03:14:21;20.00;89.10
3850;DHT22;1940;51.052;13.678;2023-06-22T03:16:47;20.10;88.70
3850;DHT22;1940;51.052;13.678;2023-06-22T03:19:12;20.10;88.40
3850;DHT22;1940;51.052;13.678;2023-06-22T03:21:39;20.20;88.50
3850;DHT22;1940;51.052;13.678;2023-06-22T03:24:05;20.40;88.00
3850;DHT22;1940;51.052;13.678;2023-06-22T03:26:31;20.40;87.60
3850;DHT22;1940;51.052;13.678;2023-06-22T03:28:57;20.40;87.60
3850;DHT22;1940;51.052;13.678;2023-06-22T03:31:23;20.50;87.10
3850;DHT22;1940;51.052;13.678;2023-06-22T03:33:49;20.70;86.70
3850;DHT22;1940;51.052;13.678;2023-06-22T03:36:16;20.80;86.20
3850;DHT22;1940;51.052;13.678;2023-06-22T03:38:45;20.90;85.90
3850;DHT22;1940;51.052;13.678;2023-06-22T03:41:11;21.00;85.70
3850;DHT22;1940;51.052;13.678;2023-06-22T03:43:36;21.20;85.40
3850;DHT22;1940;51.052;13.678;2023-06-22T03:46:02;21.50;84.40
3850;DHT22;1940;51.052;13.678;2023-06-22T03:48:27;21.80;83.50
3850;DHT22;1940;51.052;13.678;2023-06-22T03:50:53;22.00;82.70
3850;DHT22;1940;51.052;13.678;2023-06-22T03:53:18;22.30;82.20
3850;DHT22;1940;51.052;13.678;2023-06-22T03:55:51;22.60;81.20
3850;DHT22;1940;51.052;13.678;2023-06-22T03:58:18;22.70;80.30
3850;DHT22;1940;51.052;13.678;2023-06-22T04:00:49;22.90;79.90
3850;DHT22;1940;51.052;13.678;2023-06-22T04:03:15;23.10;79.20
3850;DHT22;1940;51.052;13.678;2023-06-22T04:05:41;23.20;78.90
3850;DHT22;1940;51.052;13.678;2023-06-22T04:08:07;23.40;78.30
3850;DHT22;1940;51.052;13.678;2023-06-22T04:10:33;23.40;78.50
3850;DHT22;1940;51.052;13.678;2023-06-22T04:12:59;23.70;77.50
3850;DHT22;1940;51.052;13.678;2023-06-22T04:15:25;24.00;77.00
3850;DHT22;1940;51.052;13.678;2023-06-22T04:17:50;24.20;76.20
3850;DHT22;1940;51.052;13.678;2023-06-22T04:20:16;24.20;76.30
3850;DHT22;1940;51.052;13.678;2023-06-22T04:22:41;24.20;76.30
3850;DHT22;1940;51.052;13.678;2023-06-22T04:25:07;24.50;75.10
3850;DHT22;1940;51.052;13.678;2023-06-22T04:27:33;24.90;74.30
3850;DHT22;1940;51.052;13.678;2023-06-22T04:30:06;24.80;74.20
3850;DHT22;1940;51.052;13.678;2023-06-22T04:32:35;25.00;73.90
3850;DHT22;1940;51.052;13.678;2023-06-22T04:35:05;25.30;73.10
3850;DHT22;1940;51.052;13.678;2023-06-22T04:37:31;25.70;72.30
3850;DHT22;1940;51.052;13.678;2023-06-22T04:39:57;26.10;71.40
3850;DHT22;1940;51.052;13.678;2023-06-22T04:42:22;26.50;70.50
3850;DHT22;1940;51.052;13.678;2023-06-22T04:44:48;26.90;69.30
3850;DHT22;1940;51.052;13.678;2023-06-22T04:47:13;27.10;68.20
3850;DHT22;1940;51.052;13.678;2023-06-22T04:49:39;27.20;68.60
3850;DHT22;1940;51.052;13.678;2023-06-22T04:52:09;27.20;68.10
3850;DHT22;1940;51.052;13.678;2023-06-22T04:54:36;27.70;67.40
3850;DHT22;1940;51.052;13.678;2023-06-22T04:57:06;28.20;66.30
3850;DHT22;1940;51.052;13.678;2023-06-22T04:59:36;28.80;64.40
3850;DHT22;1940;51.052;13.678;2023-06-22T05:02:05;29.10;64.20
3850;DHT22;1940;51.052;13.678;2023-06-22T05:04:31;29.40;63.60
3850;DHT22;1940;51.052;13.678;2023-06-22T05:06:57;29.20;63.10
3850;DHT22;1940;51.052;13.678;2023-06-22T05:09:23;28.80;64.10
3850;DHT22;1940;51.052;13.678;2023-06-22T05:11:50;29.40;63.10
3850;DHT22;1940;51.052;13.678;2023-06-22T05:14:15;29.80;62.70
3850;DHT22;1940;51.052;13.678;2023-06-22T05:16:42;29.80;62.60
3850;DHT22;1940;51.052;13.678;2023-06-22T05:19:08;30.20;62.10
3850;DHT22;1940;51.052;13.678;2023-06-22T05:21:34;30.40;61.60
3850;DHT22;1940;51.052;13.678;2023-06-22T05:24:00;30.60;61.50
3850;DHT22;1940;51.052;13.678;2023-06-22T05:26:32;30.70;61.00
3850;DHT22;1940;51.052;13.678;2023-06-22T05:28:58;30.10;62.10
3850;DHT22;1940;51.052;13.678;2023-06-22T05:31:24;29.90;62.20
3850;DHT22;1940;51.052;13.678;2023-06-22T05:33:52;29.60;63.00
3850;DHT22;1940;51.052;13.678;2023-06-22T05:36:17;29.70;62.70
3850;DHT22;1940;51.052;13.678;2023-06-22T05:38:45;29.60;62.50
3850;DHT22;1940;51.052;13.678;2023-06-22T05:41:11;29.80;62.20
3850;DHT22;1940;51.052;13.678;2023-06-22T05:43:37;29.60;62.90
3850;DHT22;1940;51.052;13.678;2023-06-22T05:46:03;29.60;63.10
3850;DHT22;1940;51.052;13.678;2023-06-22T05:48:29;30.30;61.70
3850;DHT22;1940;51.052;13.678;2023-06-22T05:50:54;31.20;59.50
3850;DHT22;1940;51.052;13.678;2023-06-22T05:53:20;31.60;59.10
3850;DHT22;1940;51.052;13.678;2023-06-22T05:55:46;32.10;57.70
3850;DHT22;1940;51.052;13.678;2023-06-22T05:58:11;32.10;57.90
3850;DHT22;1940;51.052;13.678;2023-06-22T06:00:38;32.40;57.30
3850;DHT22;1940;51.052;13.678;2023-06-22T06:03:05;32.80;56.70
3850;DHT22;1940;51.052;13.678;2023-06-22T06:05:31;32.40;57.20
3850;DHT22;1940;51.052;13.678;2023-06-22T06:07:58;32.10;57.70
3850;DHT22;1940;51.052;13.678;2023-06-22T06:10:23;32.60;56.60
3850;DHT22;1940;51.052;13.678;2023-06-22T06:12:49;32.90;56.20
3850;DHT22;1940;51.052;13.678;2023-06-22T06:15:14;33.10;55.90
3850;DHT22;1940;51.052;13.678;2023-06-22T06:17:50;33.30;55.60
3850;DHT22;1940;51.052;13.678;2023-06-22T06:20:19;33.60;54.90
3850;DHT22;1940;51.052;13.678;2023-06-22T06:22:45;33.60;55.20
3850;DHT22;1940;51.052;13.678;2023-06-22T06:25:12;33.70;54.50
3850;DHT22;1940;51.052;13.678;2023-06-22T06:27:45;33.40;55.20
3850;DHT22;1940;51.052;13.678;2023-06-22T06:30:12;32.30;56.10
3850;DHT22;1940;51.052;13.678;2023-06-22T06:32:38;30.80;59.00
3850;DHT22;1940;51.052;13.678;2023-06-22T06:35:09;29.70;61.10
3850;DHT22;1940;51.052;13.678;2023-06-22T06:37:40;28.50;63.50
3850;DHT22;1940;51.052;13.678;2023-06-22T06:40:07;28.10;64.70
3850;DHT22;1940;51.052;13.678;2023-06-22T06:42:46;27.70;65.50
3850;DHT22;1940;51.052;13.678;2023-06-22T06:45:18;27.40;66.50
3850;DHT22;1940;51.052;13.678;2023-06-22T06:47:44;27.30;67.10
3850;DHT22;1940;51.052;13.678;2023-06-22T06:50:10;27.10;66.90
3850;DHT22;1940;51.052;13.678;2023-06-22T06:52:36;27.00;67.60
3850;DHT22;1940;51.052;13.678;2023-06-22T06:55:02;27.00;67.90
3850;DHT22;1940;51.052;13.678;2023-06-22T06:57:29;27.50;67.00
3850;DHT22;1940;51.052;13.678;2023-06-22T06:59:56;28.10;65.30
3850;DHT22;1940;51.052;13.678;2023-06-22T07:02:22;28.70;64.30
3850;DHT22;1940;51.052;13.678;2023-06-22T07:04:48;29.40;62.70
3850;DHT22;1940;51.052;13.678;2023-06-22T07:07:16;30.20;60.60
3850;DHT22;1940;51.052;13.678;2023-06-22T07:09:42;30.80;59.60
3850;DHT22;1940;51.052;13.678;2023-06-22T07:12:08;30.90;58.80
3850;DHT22;1940;51.052;13.678;2023-06-22T07:14:33;31.20;58.60
3850;DHT22;1940;51.052;13.678;2023-06-22T07:16:59;32.00;57.40
3850;DHT22;1940;51.052;13.678;2023-06-22T07:19:28;32.60;56.20
3850;DHT22;1940;51.052;13.678;2023-06-22T07:21:54;33.20;54.90
3850;DHT22;1940;51.052;13.678;2023-06-22T07:24:23;33.30;54.80
3850;DHT22;1940;51.052;13.678;2023-06-22T07:26:50;33.40;54.60
3850;DHT22;1940;51.052;13.678;2023-06-22T07:29:19;34.10;53.60
3850;DHT22;1940;51.052;13.678;2023-06-22T07:31:50;34.60;52.80
3850;DHT22;1940;51.052;13.678;2023-06-22T07:34:17;34.20;53.00
3850;DHT22;1940;51.052;13.678;2023-06-22T07:36:43;34.00;53.20
3850;DHT22;1940;51.052;13.678;2023-06-22T07:39:09;33.70;53.80
3850;DHT22;1940;51.052;13.678;2023-06-22T07:41:34;33.30;54.70
3850;DHT22;1940;51.052;13.678;2023-06-22T07:44:00;32.80;55.30
3850;DHT22;1940;51.052;13.678;2023-06-22T07:46:25;32.60;55.80
3850;DHT22;1940;51.052;13.678;2023-06-22T07:48:51;32.60;56.20
3850;DHT22;1940;51.052;13.678;2023-06-22T07:51:17;33.00;55.90
3850;DHT22;1940;51.052;13.678;2023-06-22T07:53:43;33.40;54.20
3850;DHT22;1940;51.052;13.678;2023-06-22T07:56:12;33.30;54.60
3850;DHT22;1940;51.052;13.678;2023-06-22T07:58:38;33.60;54.80
3850;DHT22;1940;51.052;13.678;2023-06-22T08:01:04;33.80;54.20
3850;DHT22;1940;51.052;13.678;2023-06-22T08:03:30;34.00;53.60
3850;DHT22;1940;51.052;13.678;2023-06-22T08:05:55;34.40;53.40
3850;DHT22;1940;51.052;13.678;2023-06-22T08:08:21;34.40;53.30
3850;DHT22;1940;51.052;13.678;2023-06-22T08:10:46;34.40;53.20
3850;DHT22;1940;51.052;13.678;2023-06-22T08:13:12;34.50;53.30
3850;DHT22;1940;51.052;13.678;2023-06-22T08:15:38;34.30;53.20
3850;DHT22;1940;51.052;13.678;2023-06-22T08:18:03;33.90;53.90
3850;DHT22;1940;51.052;13.678;2023-06-22T08:20:29;33.60;54.50
3850;DHT22;1940;51.052;13.678;2023-06-22T08:22:55;33.30;54.80
3850;DHT22;1940;51.052;13.678;2023-06-22T08:25:23;32.90;55.60
3850;DHT22;1940;51.052;13.678;2023-06-22T08:27:48;33.30;55.40
3850;DHT22;1940;51.052;13.678;2023-06-22T08:30:14;34.00;53.40
3850;DHT22;1940;51.052;13.678;2023-06-22T08:32:40;34.20;53.20
3850;DHT22;1940;51.052;13.678;2023-06-22T08:35:06;34.20;52.40
3850;DHT22;1940;51.052;13.678;2023-06-22T08:37:34;34.30;53.10
3850;DHT22;1940;51.052;13.678;2023-06-22T08:40:01;34.70;52.50
3850;DHT22;1940;51.052;13.678;2023-06-22T08:42:27;35.20;51.10
3850;DHT22;1940;51.052;13.678;2023-06-22T08:44:53;35.30;50.90
3850;DHT22;1940;51.052;13.678;2023-06-22T08:47:19;35.30;50.70
3850;DHT22;1940;51.052;13.678;2023-06-22T08:49:44;35.30;50.30
3850;DHT22;1940;51.052;13.678;2023-06-22T08:52:10;34.90;50.50
3850;DHT22;1940;51.052;13.678;2023-06-22T08:54:35;34.90;50.60
3850;DHT22;1940;51.052;13.678;2023-06-22T08:57:02;35.00;50.30
3850;DHT22;1940;51.052;13.678;2023-06-22T08:59:28;35.00;50.40
3850;DHT22;1940;51.052;13.678;2023-06-22T09:01:54;35.00;50.40
3850;DHT22;1940;51.052;13.678;2023-06-22T09:04:19;35.00;50.60
3850;DHT22;1940;51.052;13.678;2023-06-22T09:06:47;35.20;49.90
3850;DHT22;1940;51.052;13.678;2023-06-22T09:09:13;35.60;49.50
3850;DHT22;1940;51.052;13.678;2023-06-22T09:11:40;35.70;48.30
3850;DHT22;1940;51.052;13.678;2023-06-22T09:14:05;35.80;48.60
3850;DHT22;1940;51.052;13.678;2023-06-22T09:16:31;36.00;48.30
3850;DHT22;1940;51.052;13.678;2023-06-22T09:18:57;36.10;48.10
3850;DHT22;1940;51.052;13.678;2023-06-22T09:21:23;36.10;48.30
3850;DHT22;1940;51.052;13.678;2023-06-22T09:23:49;36.20;48.20
3850;DHT22;1940;51.052;13.678;2023-06-22T09:26:17;36.00;48.00
3850;DHT22;1940;51.052;13.678;2023-06-22T09:28:43;35.80;48.80
3850;DHT22;1940;51.052;13.678;2023-06-22T09:31:08;36.30;48.30
3850;DHT22;1940;51.052;13.678;2023-06-22T09:33:34;36.40;48.30
3850;DHT22;1940;51.052;13.678;2023-06-22T09:36:00;36.30;48.90
3850;DHT22;1940;51.052;13.678;2023-06-22T09:38:25;36.60;48.60
3850;DHT22;1940;51.052;13.678;2023-06-22T09:40:51;36.60;48.10
3850;DHT22;1940;51.052;13.678;2023-06-22T09:43:17;36.00;49.30
3850;DHT22;1940;51.052;13.678;2023-06-22T09:45:42;36.10;49.40
3850;DHT22;1940;51.052;13.678;2023-06-22T09:48:08;36.60;48.70
3850;DHT22;1940;51.052;13.678;2023-06-22T09:50:35;36.80;48.80
3850;DHT22;1940;51.052;13.678;2023-06-22T09:53:00;36.40;49.10
3850;DHT22;1940;51.052;13.678;2023-06-22T09:55:26;36.60;48.30
3850;DHT22;1940;51.052;13.678;2023-06-22T09:57:52;36.40;48.60
3850;DHT22;1940;51.052;13.678;2023-06-22T10:00:18;36.10;49.40
3850;DHT22;1940;51.052;13.678;2023-06-22T10:02:44;35.20;50.40
3850;DHT22;1940;51.052;13.678;2023-06-22T10:05:10;34.80;50.50
3850;DHT22;1940;51.052;13.678;2023-06-22T10:07:36;34.80;51.40
3850;DHT22;1940;51.052;13.678;2023-06-22T10:10:08;35.60;50.20
3850;DHT22;1940;51.052;13.678;2023-06-22T10:12:33;36.10;49.20
3850;DHT22;1940;51.052;13.678;2023-06-22T10:14:59;36.70;49.30
3850;DHT22;1940;51.052;13.678;2023-06-22T10:17:24;36.70;48.30
3850;DHT22;1940;51.052;13.678;2023-06-22T10:19:50;37.00;47.70
3850;DHT22;1940;51.052;13.678;2023-06-22T10:22:15;37.10;47.70
3850;DHT22;1940;51.052;13.678;2023-06-22T10:24:41;37.40;47.40
3850;DHT22;1940;51.052;13.678;2023-06-22T10:27:10;37.90;46.50
3850;DHT22;1940;51.052;13.678;2023-06-22T10:29:36;38.30;46.10
3850;DHT22;1940;51.052;13.678;2023-06-22T10:32:01;38.70;46.00
3850;DHT22;1940;51.052;13.678;2023-06-22T10:34:27;38.70;45.50
3850;DHT22;1940;51.052;13.678;2023-06-22T10:36:52;38.80;45.50
3850;DHT22;1940;51.052;13.678;2023-06-22T10:39:18;38.70;45.40
3850;DHT22;1940;51.052;13.678;2023-06-22T10:41:44;38.60;45.40
3850;DHT22;1940;51.052;13.678;2023-06-22T10:44:09;38.60;45.60
3850;DHT22;1940;51.052;13.678;2023-06-22T10:46:35;39.00;45.50
3850;DHT22;1940;51.052;13.678;2023-06-22T10:49:00;39.90;44.30
3850;DHT22;1940;51.052;13.678;2023-06-22T10:51:26;40.40;43.50
3850;DHT22;1940;51.052;13.678;2023-06-22T10:53:53;39.80;44.40
3850;DHT22;1940;51.052;13.678;2023-06-22T10:56:19;38.50;46.00
3850;DHT22;1940;51.052;13.678;2023-06-22T10:58:45;36.80;48.00
3850;DHT22;1940;51.052;13.678;2023-06-22T11:01:10;36.50;49.00
3850;DHT22;1940;51.052;13.678;2023-06-22T11:03:36;36.70;48.60
3850;DHT22;1940;51.052;13.678;2023-06-22T11:06:01;36.60;47.90
3850;DHT22;1940;51.052;13.678;2023-06-22T11:08:27;36.00;48.70
3850;DHT22;1940;51.052;13.678;2023-06-22T11:10:52;34.90;50.80
3850;DHT22;1940;51.052;13.678;2023-06-22T11:13:18;34.50;51.30
3850;DHT22;1940;51.052;13.678;2023-06-22T11:15:44;34.90;51.10
3850;DHT22;1940;51.052;13.678;2023-06-22T11:18:09;34.80;50.90
3850;DHT22;1940;51.052;13.678;2023-06-22T11:20:35;34.10;53.20
3850;DHT22;1940;51.052;13.678;2023-06-22T11:23:04;33.70;53.10
3850;DHT22;1940;51.052;13.678;2023-06-22T11:25:31;33.90;53.20
3850;DHT22;1940;51.052;13.678;2023-06-22T11:27:56;34.30;52.20
3850;DHT22;1940;51.052;13.678;2023-06-22T11:30:22;34.60;51.30
3850;DHT22;1940;51.052;13.678;2023-06-22T11:32:48;35.00;50.90
3850;DHT22;1940;51.052;13.678;2023-06-22T11:35:13;34.90;51.40
3850;DHT22;1940;51.052;13.678;2023-06-22T11:37:39;34.50;51.70
3850;DHT22;1940;51.052;13.678;2023-06-22T11:40:05;34.30;52.30
3850;DHT22;1940;51.052;13.678;2023-06-22T11:42:34;34.20;52.90
3850;DHT22;1940;51.052;13.678;2023-06-22T11:44:59;34.30;52.20
3850;DHT22;1940;51.052;13.678;2023-06-22T11:47:25;33.90;52.60
3850;DHT22;1940;51.052;13.678;2023-06-22T11:49:50;33.70;53.20
3850;DHT22;1940;51.052;13.678;2023-06-22T11:52:16;33.40;53.80
3850;DHT22;1940;51.052;13.678;2023-06-22T11:54:43;33.20;54.30
3850;DHT22;1940;51.052;13.678;2023-06-22T11:57:08;33.10;54.40
3850;DHT22;1940;51.052;13.678;2023-06-22T11:59:34;33.30;54.10
3850;DHT22;1940;51.052;13.678;2023-06-22T12:01:59;33.40;54.30
3850;DHT22;1940;51.052;13.678;2023-06-22T12:04:25;33.60;53.70
3850;DHT22;1940;51.052;13.678;2023-06-22T12:06:50;33.70;53.10
3850;DHT22;1940;51.052;13.678;2023-06-22T12:09:16;33.50;53.30
3850;DHT22;1940;51.052;13.678;2023-06-22T12:11:41;33.40;53.60
3850;DHT22;1940;51.052;13.678;2023-06-22T12:14:07;33.60;53.30
3850;DHT22;1940;51.052;13.678;2023-06-22T12:16:32;33.50;52.60
3850;DHT22;1940;51.052;13.678;2023-06-22T12:18:58;33.40;53.10
3850;DHT22;1940;51.052;13.678;2023-06-22T12:21:23;33.60;53.30
3850;DHT22;1940;51.052;13.678;2023-06-22T12:23:49;33.70;52.40
3850;DHT22;1940;51.052;13.678;2023-06-22T12:26:14;33.60;52.70
3850;DHT22;1940;51.052;13.678;2023-06-22T12:28:40;33.50;52.80
3850;DHT22;1940;51.052;13.678;2023-06-22T12:31:05;33.30;53.40
3850;DHT22;1940;51.052;13.678;2023-06-22T12:33:31;33.20;53.20
3850;DHT22;1940;51.052;13.678;2023-06-22T12:35:56;33.20;53.40
3850;DHT22;1940;51.052;13.678;2023-06-22T12:38:22;33.30;53.40
3850;DHT22;1940;51.052;13.678;2023-06-22T12:40:49;33.40;51.80
3850;DHT22;1940;51.052;13.678;2023-06-22T12:43:14;33.60;52.20
3850;DHT22;1940;51.052;13.678;2023-06-22T12:45:40;33.70;53.00
3850;DHT22;1940;51.052;13.678;2023-06-22T12:48:06;33.80;52.30
3850;DHT22;1940;51.052;13.678;2023-06-22T12:50:31;33.90;52.40
3850;DHT22;1940;51.052;13.678;2023-06-22T12:52:57;33.70;52.10
3850;DHT22;1940;51.052;13.678;2023-06-22T12:55:23;33.70;52.10
3850;DHT22;1940;51.052;13.678;2023-06-22T12:57:48;33.70;51.90
3850;DHT22;1940;51.052;13.678;2023-06-22T13:00:14;33.70;52.00
3850;DHT22;1940;51.052;13.678;2023-06-22T13:02:40;33.70;52.60
3850;DHT22;1940;51.052;13.678;2023-06-22T13:05:05;33.70;52.20
3850;DHT22;1940;51.052;13.678;2023-06-22T13:07:31;33.70;52.00
3850;DHT22;1940;51.052;13.678;2023-06-22T13:09:56;33.30;52.70
3850;DHT22;1940;51.052;13.678;2023-06-22T13:12:22;33.20;53.10
3850;DHT22;1940;51.052;13.678;2023-06-22T13:14:48;33.20;53.40
3850;DHT22;1940;51.052;13.678;2023-06-22T13:17:14;32.80;53.20
3850;DHT22;1940;51.052;13.678;2023-06-22T13:19:39;32.70;54.10
3850;DHT22;1940;51.052;13.678;2023-06-22T13:22:09;32.70;53.80
3850;DHT22;1940;51.052;13.678;2023-06-22T13:24:50;32.80;53.70
3850;DHT22;1940;51.052;13.678;2023-06-22T13:27:16;33.00;53.70
3850;DHT22;1940;51.052;13.678;2023-06-22T13:29:41;33.10;53.50
3850;DHT22;1940;51.052;13.678;2023-06-22T13:32:07;33.00;53.50
3850;DHT22;1940;51.052;13.678;2023-06-22T13:34:32;33.10;53.00
3850;DHT22;1940;51.052;13.678;2023-06-22T13:36:58;33.20;53.20
3850;DHT22;1940;51.052;13.678;2023-06-22T13:39:23;33.00;53.60
3850;DHT22;1940;51.052;13.678;2023-06-22T13:41:49;33.10;53.30
3850;DHT22;1940;51.052;13.678;2023-06-22T13:44:14;33.10;53.90
3850;DHT22;1940;51.052;13.678;2023-06-22T13:46:40;33.20;54.00
3850;DHT22;1940;51.052;13.678;2023-06-22T13:49:05;33.40;53.10
3850;DHT22;1940;51.052;13.678;2023-06-22T13:51:31;33.40;52.70
3850;DHT22;1940;51.052;13.678;2023-06-22T13:53:56;33.60;52.80
3850;DHT22;1940;51.052;13.678;2023-06-22T13:56:21;33.80;52.90
3850;DHT22;1940;51.052;13.678;2023-06-22T13:58:47;33.70;53.90
3850;DHT22;1940;51.052;13.678;2023-06-22T14:01:12;33.40;54.10
3850;DHT22;1940;51.052;13.678;2023-06-22T14:03:38;33.10;54.70
3850;DHT22;1940;51.052;13.678;2023-06-22T14:06:03;33.00;55.30
3850;DHT22;1940;51.052;13.678;2023-06-22T14:08:29;33.00;55.10
3850;DHT22;1940;51.052;13.678;2023-06-22T14:10:55;32.90;55.20
3850;DHT22;1940;51.052;13.678;2023-06-22T14:13:20;32.90;55.40
3850;DHT22;1940;51.052;13.678;2023-06-22T14:15:46;33.00;55.00
3850;DHT22;1940;51.052;13.678;2023-06-22T14:18:13;33.20;55.00
3850;DHT22;1940;51.052;13.678;2023-06-22T14:20:39;33.20;53.50
3850;DHT22;1940;51.052;13.678;2023-06-22T14:23:05;33.10;54.20
3850;DHT22;1940;51.052;13.678;2023-06-22T14:25:31;32.90;55.10
3850;DHT22;1940;51.052;13.678;2023-06-22T14:27:56;32.80;54.90
3850;DHT22;1940;51.052;13.678;2023-06-22T14:30:22;32.70;55.20
3850;DHT22;1940;51.052;13.678;2023-06-22T14:32:47;32.60;55.50
3850;DHT22;1940;51.052;13.678;2023-06-22T14:35:13;32.60;55.60
3850;DHT22;1940;51.052;13.678;2023-06-22T14:37:38;32.60;53.90
3850;DHT22;1940;51.052;13.678;2023-06-22T14:40:05;32.70;53.50
3850;DHT22;1940;51.052;13.678;2023-06-22T14:42:31;32.80;53.70
3850;DHT22;1940;51.052;13.678;2023-06-22T14:44:56;32.90;54.50
3850;DHT22;1940;51.052;13.678;2023-06-22T14:47:22;32.90;54.90
3850;DHT22;1940;51.052;13.678;2023-06-22T14:49:48;32.80;54.00
3850;DHT22;1940;51.052;13.678;2023-06-22T14:52:13;32.60;53.70
3850;DHT22;1940;51.052;13.678;2023-06-22T14:54:39;32.60;54.20
3850;DHT22;1940;51.052;13.678;2023-06-22T14:57:05;32.60;53.70
3850;DHT22;1940;51.052;13.678;2023-06-22T14:59:31;32.50;54.50
3850;DHT22;1940;51.052;13.678;2023-06-22T15:01:56;32.70;54.10
3850;DHT22;1940;51.052;13.678;2023-06-22T15:04:21;32.80;54.00
3850;DHT22;1940;51.052;13.678;2023-06-22T15:06:47;32.90;55.00
3850;DHT22;1940;51.052;13.678;2023-06-22T15:09:13;32.90;55.20
3850;DHT22;1940;51.052;13.678;2023-06-22T15:11:38;32.80;55.70
3850;DHT22;1940;51.052;13.678;2023-06-22T15:14:04;32.60;55.70
3850;DHT22;1940;51.052;13.678;2023-06-22T15:16:29;32.40;56.30
3850;DHT22;1940;51.052;13.678;2023-06-22T15:18:55;32.40;56.50
3850;DHT22;1940;51.052;13.678;2023-06-22T15:21:20;32.40;56.60
3850;DHT22;1940;51.052;13.678;2023-06-22T15:23:46;32.40;55.90
3850;DHT22;1940;51.052;13.678;2023-06-22T15:26:11;32.50;56.80
3850;DHT22;1940;51.052;13.678;2023-06-22T15:28:37;32.20;57.00
3850;DHT22;1940;51.052;13.678;2023-06-22T15:31:03;32.20;57.20
3850;DHT22;1940;51.052;13.678;2023-06-22T15:33:29;32.30;57.50
3850;DHT22;1940;51.052;13.678;2023-06-22T15:35:57;32.30;56.60
3850;DHT22;1940;51.052;13.678;2023-06-22T15:38:23;32.20;56.70
3850;DHT22;1940;51.052;13.678;2023-06-22T15:40:48;32.20;57.20
3850;DHT22;1940;51.052;13.678;2023-06-22T15:43:14;32.10;57.00
3850;DHT22;1940;51.052;13.678;2023-06-22T15:45:40;32.00;57.50
3850;DHT22;1940;51.052;13.678;2023-06-22T15:48:05;32.10;57.10
3850;DHT22;1940;51.052;13.678;2023-06-22T15:50:31;32.10;57.20
3850;DHT22;1940;51.052;13.678;2023-06-22T15:52:56;32.20;56.70
3850;DHT22;1940;51.052;13.678;2023-06-22T15:55:22;32.20;57.20
3850;DHT22;1940;51.052;13.678;2023-06-22T15:57:48;32.30;57.10
3850;DHT22;1940;51.052;13.678;2023-06-22T16:00:17;32.40;57.20
3850;DHT22;1940;51.052;13.678;2023-06-22T16:02:44;32.40;57.20
3850;DHT22;1940;51.052;13.678;2023-06-22T16:05:10;32.40;57.00
3850;DHT22;1940;51.052;13.678;2023-06-22T16:07:36;32.20;57.50
3850;DHT22;1940;51.052;13.678;2023-06-22T16:10:03;32.00;58.10
3850;DHT22;1940;51.052;13.678;2023-06-22T16:12:29;31.80;58.00
3850;DHT22;1940;51.052;13.678;2023-06-22T16:14:55;31.60;58.50
3850;DHT22;1940;51.052;13.678;2023-06-22T16:17:21;31.50;59.00
3850;DHT22;1940;51.052;13.678;2023-06-22T16:19:47;31.40;59.40
3850;DHT22;1940;51.052;13.678;2023-06-22T16:22:13;31.50;59.60
3850;DHT22;1940;51.052;13.678;2023-06-22T16:24:38;31.50;59.40
3850;DHT22;1940;51.052;13.678;2023-06-22T16:27:04;31.50;59.50
3850;DHT22;1940;51.052;13.678;2023-06-22T16:29:29;31.40;59.70
3850;DHT22;1940;51.052;13.678;2023-06-22T16:31:55;31.30;60.00
3850;DHT22;1940;51.052;13.678;2023-06-22T16:34:20;31.20;60.40
3850;DHT22;1940;51.052;13.678;2023-06-22T16:36:46;31.30;60.10
3850;DHT22;1940;51.052;13.678;2023-06-22T16:39:12;31.40;60.10
3850;DHT22;1940;51.052;13.678;2023-06-22T16:41:38;31.40;60.00
3850;DHT22;1940;51.052;13.678;2023-06-22T16:44:04;31.40;60.10
3850;DHT22;1940;51.052;13.678;2023-06-22T16:46:33;31.40;60.50
3850;DHT22;1940;51.052;13.678;2023-06-22T16:48:59;31.40;60.50
3850;DHT22;1940;51.052;13.678;2023-06-22T16:51:24;31.40;60.50
3850;DHT22;1940;51.052;13.678;2023-06-22T16:53:54;31.40;60.60
3850;DHT22;1940;51.052;13.678;2023-06-22T16:56:25;31.30;60.80
3850;DHT22;1940;51.052;13.678;2023-06-22T16:58:52;31.20;61.00
3850;DHT22;1940;51.052;13.678;2023-06-22T17:01:19;31.10;61.30
3850;DHT22;1940;51.052;13.678;2023-06-22T17:04:12;31.00;61.70
3850;DHT22;1940;51.052;13.678;2023-06-22T17:06:42;31.00;61.80
3850;DHT22;1940;51.052;13.678;2023-06-22T17:09:13;30.90;61.90
3850;DHT22;1940;51.052;13.678;2023-06-22T17:11:40;30.90;61.90
3850;DHT22;1940;51.052;13.678;2023-06-22T17:14:06;30.90;62.10
3850;DHT22;1940;51.052;13.678;2023-06-22T17:16:33;30.90;62.30
3850;DHT22;1940;51.052;13.678;2023-06-22T17:18:59;30.70;62.60
3850;DHT22;1940;51.052;13.678;2023-06-22T17:21:29;30.70;62.70
3850;DHT22;1940;51.052;13.678;2023-06-22T17:23:56;30.70;62.80
3850;DHT22;1940;51.052;13.678;2023-06-22T17:26:24;30.60;62.90
3850;DHT22;1940;51.052;13.678;2023-06-22T17:28:51;30.50;63.00